Time;durP1;ratioP1;P1;durP2;ratioP2;P2;SDS_P1;SDS_P2;PMS_P1;PMS_P2;Temp;Humidity;BMP_temperature;BMP_pressure;BME280_temperature;BME280_humidity;BME280_pressure;Samples;Min_cycle;Max_cycle;Signal;HPM_P1;HPM_P2
2023/02/28 00:01:15;;;;;;;3.20;2.40;;;;;;;-2.56;71.59;98870.47;5072232;28;20207;-77
2023/02/28 00:03:42;;;;;;;3.33;2.70;;;;;;;-2.51;71.83;98860.06;5072633;28;20211;-77
2023/02/28 00:06:09;;;;;;;3.70;2.70;;;;;;;-2.46;72.10;98858.31;5072317;28;20250;-77
2023/02/28 00:08:36;;;;;;;3.97;3.00;;;;;;;-2.49;72.42;98860.91;5072705;28;20211;-77
2023/02/28 00:11:06;;;;;;;4.13;2.60;;;;;;;-2.51;72.56;98857.47;5072861;28;20214;-77
2023/02/28 00:13:35;;;;;;;3.00;2.70;;;;;;;-2.55;73.40;98868.72;5072091;28;20676;-77
2023/02/28 00:16:02;;;;;;;2.77;2.40;;;;;;;-2.58;73.77;98867.00;5078938;28;20210;-77
2023/02/28 00:18:29;;;;;;;4.13;3.00;;;;;;;-2.55;73.88;98866.13;5083880;28;20291;-77
2023/02/28 00:20:55;;;;;;;3.20;2.50;;;;;;;-2.58;74.16;98868.75;5080968;28;20211;-78
2023/02/28 00:23:22;;;;;;;4.40;2.73;;;;;;;-2.57;74.14;98867.88;5080595;28;20321;-77
2023/02/28 00:25:48;;;;;;;4.77;3.00;;;;;;;-2.58;74.22;98866.16;5080399;28;20218;-78
2023/02/28 00:28:16;;;;;;;5.23;3.00;;;;;;;-2.64;74.96;98868.78;5081341;28;20203;-77
2023/02/28 00:30:43;;;;;;;4.10;3.20;;;;;;;-2.67;75.29;98863.59;5074605;28;20302;-77
2023/02/28 00:33:10;;;;;;;3.40;3.10;;;;;;;-2.74;75.84;98865.38;5072590;28;20685;-77
2023/02/28 00:35:36;;;;;;;4.10;3.00;;;;;;;-2.79;76.10;98866.25;5072647;28;20504;-77
2023/02/28 00:38:03;;;;;;;3.50;2.87;;;;;;;-2.81;77.05;98865.41;5058542;22;20233;-81
2023/02/28 00:40:30;;;;;;;3.30;2.73;;;;;;;-2.83;77.51;98874.88;5031954;28;20250;-81
2023/02/28 00:42:56;;;;;;;3.23;2.93;;;;;;;-2.81;77.39;98870.59;5032124;28;20239;-81
2023/02/28 00:45:24;;;;;;;3.50;3.00;;;;;;;-2.79;78.39;98879.19;5031930;28;20215;-81
2023/02/28 00:47:51;;;;;;;3.63;3.20;;;;;;;-2.81;78.55;98875.75;5031424;28;20264;-81
2023/02/28 00:50:18;;;;;;;4.90;3.20;;;;;;;-2.68;78.57;98870.53;5032052;28;20216;-81
2023/02/28 00:52:44;;;;;;;3.90;3.07;;;;;;;-2.69;78.24;98870.53;5031689;28;20213;-81
2023/02/28 00:55:11;;;;;;;3.90;3.17;;;;;;;-2.74;79.16;98864.50;5031796;28;20304;-81
2023/02/28 00:57:37;;;;;;;3.77;3.20;;;;;;;-2.70;79.22;98874.00;5030979;28;20227;-81
2023/02/28 01:00:05;;;;;;;3.77;3.20;;;;;;;-2.71;79.92;98877.41;5031476;28;20679;-81
2023/02/28 01:02:34;;;;;;;3.83;3.10;;;;;;;-2.74;80.18;98873.16;5031181;28;20733;-81
2023/02/28 01:05:00;;;;;;;4.67;3.70;;;;;;;-2.72;80.52;98878.28;5031108;28;20703;-81
2023/02/28 01:07:27;;;;;;;4.40;3.43;;;;;;;-2.79;80.97;98876.59;5031097;28;20226;-81
2023/02/28 01:09:53;;;;;;;4.23;3.63;;;;;;;-2.84;81.68;98883.50;5036506;28;20216;-80
2023/02/28 01:12:20;;;;;;;4.53;3.60;;;;;;;-2.86;82.37;98878.38;5040414;28;20209;-81
2023/02/28 01:14:46;;;;;;;5.07;3.70;;;;;;;-2.91;82.86;98874.94;5033573;28;20213;-80
2023/02/28 01:17:13;;;;;;;5.37;3.47;;;;;;;-2.94;83.33;98874.09;5031077;28;20229;-81
2023/02/28 01:19:40;;;;;;;5.10;3.33;;;;;;;-2.97;83.70;98868.94;5031549;28;20205;-81
2023/02/28 01:22:07;;;;;;;4.00;3.60;;;;;;;-2.97;83.91;98866.34;5031152;28;20236;-81
2023/02/28 01:24:34;;;;;;;4.67;3.40;;;;;;;-3.02;84.47;98865.50;5031389;28;20208;-81
2023/02/28 01:27:00;;;;;;;4.70;3.67;;;;;;;-3.19;85.51;98868.16;5031098;28;20228;-81
2023/02/28 01:29:27;;;;;;;6.20;3.87;;;;;;;-3.24;86.26;98866.47;5031461;28;20576;-81
2023/02/28 01:31:53;;;;;;;4.67;3.90;;;;;;;-3.33;87.12;98869.06;5031410;28;20219;-82
2023/02/28 01:34:20;;;;;;;4.90;3.70;;;;;;;-3.36;87.66;98866.50;5031252;28;20212;-81
2023/02/28 01:36:48;;;;;;;5.23;3.60;;;;;;;-3.35;88.31;98875.97;5030638;28;20737;-81
2023/02/28 01:39:14;;;;;;;5.10;3.83;;;;;;;-3.40;88.40;98872.53;5031270;28;20219;-81
2023/02/28 01:41:41;;;;;;;5.93;3.90;;;;;;;-3.39;88.73;98866.50;5030894;28;20687;-81
2023/02/28 01:44:46;;;;;;;4.17;3.70;;;;;;;-3.46;89.20;98862.22;5031011;28;20204;-83
2023/02/28 01:47:13;;;;;;;5.43;3.90;;;;;;;-3.44;89.56;98866.53;5030207;28;20247;-82
2023/02/28 01:49:40;;;;;;;4.87;3.83;;;;;;;-3.50;90.14;98861.38;5031161;28;20216;-82
2023/02/28 01:52:09;;;;;;;5.10;4.30;;;;;;;-3.61;90.52;98868.28;5030906;28;20204;-81
2023/02/28 01:54:35;;;;;;;4.10;3.70;;;;;;;-3.66;91.08;98874.31;5030948;28;20219;-81
2023/02/28 01:57:06;;;;;;;5.27;3.37;;;;;;;-3.65;91.25;98860.53;5030579;28;20386;-81
2023/02/28 01:59:40;;;;;;;7.60;4.23;;;;;;;-3.61;91.79;98862.25;5030222;28;20220;-81
2023/02/28 02:02:07;;;;;;;5.80;4.10;;;;;;;-3.60;91.92;98853.66;5030410;28;20279;-81
2023/02/28 02:04:39;;;;;;;6.80;4.17;;;;;;;-3.41;92.07;98855.31;5030790;28;20217;-81
2023/02/28 02:07:07;;;;;;;6.87;4.23;;;;;;;-3.39;91.81;98853.56;5030564;28;20633;-81
2023/02/28 02:09:34;;;;;;;4.83;4.10;;;;;;;-3.28;91.52;98846.66;5030702;28;20232;-81
2023/02/28 02:12:11;;;;;;;5.27;3.90;;;;;;;-3.27;91.29;98843.19;5030677;28;20209;-82
2023/02/28 02:14:52;;;;;;;4.40;4.00;;;;;;;-3.12;91.11;98843.16;5030888;28;20227;-81
2023/02/28 02:17:31;;;;;;;4.10;3.70;;;;;;;-3.05;90.79;98834.50;5032337;28;20229;-81
2023/02/28 02:20:26;;;;;;;5.97;4.40;;;;;;;-3.00;90.47;98843.94;5034403;28;20208;-82
2023/02/28 02:23:26;;;;;;;4.97;4.17;;;;;;;-3.03;90.29;98831.03;5034411;28;20229;-81
2023/02/28 02:25:56;;;;;;;5.00;3.97;;;;;;;-2.92;89.66;98826.69;5034280;28;20223;-81
2023/02/28 02:28:55;;;;;;;5.93;4.20;;;;;;;-2.95;89.90;98820.69;5033770;28;20232;-82
2023/02/28 02:31:40;;;;;;;4.60;3.67;;;;;;;-2.91;90.11;98824.94;5032349;28;20215;-82
2023/02/28 02:34:37;;;;;;;4.23;3.77;;;;;;;-2.82;90.03;98827.50;5034240;28;20201;-82
2023/02/28 02:37:15;;;;;;;7.03;4.27;;;;;;;-2.63;89.04;98823.91;5033604;28;20270;-81
2023/02/28 02:39:50;;;;;;;5.67;3.90;;;;;;;-2.59;88.50;98826.47;5034592;28;20212;-81
2023/02/28 02:42:22;;;;;;;6.07;3.90;;;;;;;-2.55;88.56;98822.13;5034177;28;20749;-82
2023/02/28 02:44:53;;;;;;;5.23;4.00;;;;;;;-2.48;88.18;98816.91;5034250;28;20303;-82
2023/02/28 02:47:24;;;;;;;5.80;4.00;;;;;;;-2.31;86.98;98821.97;5033753;28;20228;-82
2023/02/28 02:49:55;;;;;;;6.20;4.00;;;;;;;-2.34;87.07;98817.66;5033763;28;20679;-82
2023/02/28 02:52:30;;;;;;;5.23;4.17;;;;;;;-2.28;87.39;98821.94;5033930;28;20208;-81
2023/02/28 02:54:59;;;;;;;4.47;4.00;;;;;;;-2.32;87.79;98817.66;5034195;28;20587;-81
2023/02/28 02:57:31;;;;;;;7.57;4.40;;;;;;;-2.33;88.41;98823.72;5033720;28;20253;-82
2023/02/28 02:59:58;;;;;;;5.30;4.40;;;;;;;-2.31;88.25;98812.47;5033270;28;20243;-82
2023/02/28 03:02:26;;;;;;;5.67;4.20;;;;;;;-2.26;88.62;98825.38;5033414;28;20252;-82
2023/02/28 03:05:00;;;;;;;6.80;4.33;;;;;;;-2.23;89.18;98818.44;5033815;28;20274;-82
2023/02/28 03:07:27;;;;;;;8.13;4.33;;;;;;;-2.20;89.00;98814.97;5033070;28;20224;-81
2023/02/28 03:09:54;;;;;;;5.00;3.80;;;;;;;-2.20;89.83;98820.16;5033538;28;20563;-82
2023/02/28 03:12:23;;;;;;;6.43;4.87;;;;;;;-2.12;89.12;98820.94;5033894;28;20205;-82
2023/02/28 03:15:05;;;;;;;5.80;4.40;;;;;;;-2.10;89.08;98821.75;5033299;28;20205;-81
2023/02/28 03:17:49;;;;;;;6.80;4.40;;;;;;;-2.06;89.13;98815.69;5033217;28;20236;-81
2023/02/28 03:20:30;;;;;;;5.20;4.40;;;;;;;-1.95;89.06;98821.66;5033440;28;20295;-81
2023/02/28 03:23:08;;;;;;;6.83;4.67;;;;;;;-1.92;88.69;98816.44;5032936;28;20240;-82
2023/02/28 03:25:43;;;;;;;7.13;5.07;;;;;;;-1.90;88.71;98825.06;5033696;28;20216;-82
2023/02/28 03:28:16;;;;;;;5.00;3.93;;;;;;;-1.92;88.29;98821.59;5033080;28;20227;-82
2023/02/28 03:30:53;;;;;;;5.87;4.30;;;;;;;-1.87;88.97;98819.84;5033412;28;20219;-82
2023/02/28 03:33:25;;;;;;;6.03;4.40;;;;;;;-1.90;89.11;98825.06;5033260;28;20188;-82
2023/02/28 03:35:59;;;;;;;4.77;4.17;;;;;;;-1.93;88.81;98819.88;5033371;28;20212;-82
2023/02/28 03:38:37;;;;;;;7.00;4.53;;;;;;;-1.91;89.03;98818.16;5032546;28;20278;-81
2023/02/28 03:41:11;;;;;;;5.00;4.50;;;;;;;-1.92;89.31;98821.59;5033118;28;20207;-82
2023/02/28 03:43:42;;;;;;;5.33;4.47;;;;;;;-1.84;89.23;98819.81;5032745;28;20308;-82
2023/02/28 03:46:13;;;;;;;5.20;4.27;;;;;;;-1.85;89.27;98811.19;5032397;28;20236;-82
2023/02/28 03:48:45;;;;;;;6.97;4.53;;;;;;;-1.86;89.39;98818.97;5032880;28;20213;-82
2023/02/28 03:51:17;;;;;;;5.47;4.60;;;;;;;-1.86;89.94;98821.53;5032871;28;20213;-82
2023/02/28 03:53:47;;;;;;;7.30;4.37;;;;;;;-1.81;89.11;98814.59;5032595;28;20279;-81
2023/02/28 03:56:18;;;;;;;6.17;4.50;;;;;;;-1.88;89.46;98819.00;5032117;28;20239;-82
2023/02/28 03:58:50;;;;;;;7.37;4.67;;;;;;;-1.84;89.81;98819.81;5032407;28;20216;-82
2023/02/28 04:01:22;;;;;;;5.90;4.73;;;;;;;-1.81;89.32;98814.59;5032563;28;20205;-82
2023/02/28 04:03:50;;;;;;;6.77;4.77;;;;;;;-1.79;88.85;98813.72;5032561;28;20251;-82
2023/02/28 04:06:21;;;;;;;6.27;4.80;;;;;;;-1.76;89.24;98815.41;5031907;28;20219;-82
2023/02/28 04:08:48;;;;;;;5.47;4.47;;;;;;;-1.72;89.11;98819.69;5032255;28;20216;-82
2023/02/28 04:11:22;;;;;;;4.90;4.27;;;;;;;-1.72;89.34;98825.72;5032097;28;20215;-82
2023/02/28 04:13:49;;;;;;;4.83;4.30;;;;;;;-1.70;89.11;98824.00;5032289;28;20209;-81
2023/02/28 04:16:16;;;;;;;6.27;4.40;;;;;;;-1.66;89.23;98827.41;5031841;28;20310;-82
2023/02/28 04:18:43;;;;;;;5.80;4.43;;;;;;;-1.59;88.17;98831.66;5031880;28;20852;-82
2023/02/28 04:21:11;;;;;;;5.43;4.50;;;;;;;-1.53;88.30;98822.06;5031889;28;20728;-82
2023/02/28 04:23:39;;;;;;;6.73;4.50;;;;;;;-1.53;88.56;98829.00;5031818;28;20243;-82
2023/02/28 04:26:06;;;;;;;5.53;4.40;;;;;;;-1.53;88.02;98826.41;5031881;28;20331;-81
2023/02/28 04:28:33;;;;;;;6.03;4.60;;;;;;;-1.52;88.32;98838.50;5031724;28;20232;-82
2023/02/28 04:31:01;;;;;;;7.07;4.70;;;;;;;-1.50;88.01;98822.06;5031939;28;20224;-81
2023/02/28 04:33:27;;;;;;;8.93;4.67;;;;;;;-1.52;88.25;98823.81;5031937;28;20204;-82
2023/02/28 04:36:02;;;;;;;6.07;4.80;;;;;;;-1.48;87.68;98822.88;5031546;28;20201;-81
2023/02/28 04:38:29;;;;;;;7.97;4.53;;;;;;;-1.55;87.25;98817.78;5031485;28;20232;-81
2023/02/28 04:40:59;;;;;;;6.67;4.73;;;;;;;-1.48;87.74;98814.25;5031260;28;20258;-82
2023/02/28 04:43:27;;;;;;;5.60;5.03;;;;;;;-1.49;88.11;98822.88;5031467;28;20225;-82
2023/02/28 04:45:56;;;;;;;8.30;4.47;;;;;;;-1.46;87.76;98817.69;5031837;28;20223;-82
2023/02/28 04:48:23;;;;;;;6.80;5.07;;;;;;;-1.43;87.67;98808.13;5031395;28;20239;-82
2023/02/28 04:50:49;;;;;;;7.20;4.87;;;;;;;-1.47;87.46;98810.78;5031642;28;20212;-82
2023/02/28 04:53:16;;;;;;;6.13;4.77;;;;;;;-1.40;87.13;98812.44;5031443;28;20662;-82
2023/02/28 04:55:42;;;;;;;7.07;4.40;;;;;;;-1.38;86.38;98816.72;5031652;28;20211;-82
2023/02/28 04:58:10;;;;;;;6.93;4.37;;;;;;;-1.34;86.74;98817.56;5031088;28;20235;-82
2023/02/28 05:00:36;;;;;;;7.63;5.40;;;;;;;-1.35;87.00;98805.47;5031378;28;20701;-82
2023/02/28 05:03:03;;;;;;;7.90;5.20;;;;;;;-1.40;86.91;98812.44;5031165;28;20255;-82
2023/02/28 05:05:30;;;;;;;6.10;4.83;;;;;;;-1.36;86.99;98819.31;5031201;28;20807;-82
2023/02/28 05:07:57;;;;;;;8.27;4.73;;;;;;;-1.31;86.74;98827.88;5031105;28;20229;-82
2023/02/28 05:10:23;;;;;;;7.97;5.50;;;;;;;-1.27;86.60;98814.88;5031263;28;20572;-82
2023/02/28 05:12:50;;;;;;;6.33;5.10;;;;;;;-1.25;85.85;98817.44;5031196;28;20615;-82
2023/02/28 05:15:18;;;;;;;7.77;4.97;;;;;;;-1.31;86.20;98813.19;5031268;28;20211;-82
2023/02/28 05:17:44;;;;;;;6.73;5.37;;;;;;;-1.30;86.61;98821.84;5030990;28;20239;-81
2023/02/28 05:20:13;;;;;;;6.47;4.80;;;;;;;-1.28;86.61;98817.47;5031446;28;20228;-82
2023/02/28 05:22:39;;;;;;;7.57;4.70;;;;;;;-1.24;85.90;98816.56;5031063;28;20213;-81
2023/02/28 05:25:07;;;;;;;7.83;4.90;;;;;;;-1.24;85.56;98813.97;5031254;28;20637;-81
2023/02/28 05:27:34;;;;;;;6.80;5.03;;;;;;;-1.30;85.91;98812.31;5030900;28;20274;-82
2023/02/28 05:30:03;;;;;;;8.27;5.13;;;;;;;-1.27;85.84;98822.66;5031163;28;20212;-81
2023/02/28 05:32:31;;;;;;;6.30;4.80;;;;;;;-1.22;85.74;98818.25;5031382;28;20208;-81
2023/02/28 05:34:57;;;;;;;6.17;4.93;;;;;;;-1.20;86.52;98820.81;5031296;28;20232;-82
2023/02/28 05:37:24;;;;;;;6.87;5.13;;;;;;;-1.19;85.52;98817.34;5030727;28;20236;-82
2023/02/28 05:39:50;;;;;;;7.60;5.80;;;;;;;-1.16;85.68;98822.53;5031324;28;20212;-82
2023/02/28 05:42:17;;;;;;;9.23;5.33;;;;;;;-1.13;85.38;98817.28;5030996;28;20215;-81
2023/02/28 05:44:43;;;;;;;8.90;5.47;;;;;;;-1.16;85.61;98818.16;5030930;28;20240;-82
2023/02/28 05:47:10;;;;;;;6.20;4.80;;;;;;;-1.10;84.63;98812.06;5030862;28;20236;-82
2023/02/28 05:49:38;;;;;;;6.57;4.83;;;;;;;-1.12;84.27;98824.22;5030951;28;20286;-82
2023/02/28 05:52:05;;;;;;;6.93;5.10;;;;;;;-1.21;84.79;98824.31;5032980;28;20213;-81
2023/02/28 05:54:31;;;;;;;7.00;5.70;;;;;;;-1.16;85.52;98832.91;5034838;28;20236;-81
2023/02/28 05:56:58;;;;;;;6.77;4.73;;;;;;;-1.20;85.55;98829.47;5034372;28;20239;-81
2023/02/28 05:59:24;;;;;;;8.90;5.87;;;;;;;-1.21;84.99;98826.91;5034557;28;20316;-81
2023/02/28 06:01:52;;;;;;;6.73;4.97;;;;;;;-1.18;84.48;98824.28;5034496;28;20212;-81
2023/02/28 06:04:21;;;;;;;9.90;5.07;;;;;;;-1.17;84.93;98826.84;5034691;28;20236;-81
2023/02/28 06:06:50;;;;;;;6.97;5.23;;;;;;;-1.19;85.13;98832.91;5034040;28;20709;-81
2023/02/28 06:09:17;;;;;;;8.80;5.27;;;;;;;-1.15;85.40;98832.00;5034475;28;20267;-81
2023/02/28 06:11:47;;;;;;;7.13;5.27;;;;;;;-1.16;84.76;98838.09;5034535;28;20216;-81
2023/02/28 06:14:16;;;;;;;8.73;5.70;;;;;;;-1.07;84.38;98833.63;5034282;28;20205;-82
2023/02/28 06:16:43;;;;;;;8.00;5.87;;;;;;;-1.09;84.79;98835.41;5034118;28;20290;-81
2023/02/28 06:19:10;;;;;;;8.27;5.83;;;;;;;-1.04;84.17;98843.13;5034366;28;20215;-82
2023/02/28 06:21:37;;;;;;;7.47;5.63;;;;;;;-1.09;83.71;98839.72;5034047;28;20213;-82
2023/02/28 06:24:06;;;;;;;7.30;5.70;;;;;;;-1.05;84.12;98841.41;5033999;28;20710;-81
2023/02/28 06:26:33;;;;;;;7.97;5.30;;;;;;;-1.04;83.50;98832.75;5033610;28;20225;-81
2023/02/28 06:29:00;;;;;;;6.97;4.97;;;;;;;-1.07;84.40;98848.34;5034050;28;20217;-81
2023/02/28 06:31:28;;;;;;;8.97;5.13;;;;;;;-1.10;84.52;98843.19;5034091;28;20213;-81
2023/02/28 06:33:56;;;;;;;7.03;5.33;;;;;;;-1.06;84.61;98850.06;5033904;28;20557;-81
2023/02/28 06:36:23;;;;;;;8.87;5.60;;;;;;;-1.04;83.88;98840.53;5033434;28;20213;-81
2023/02/28 06:38:54;;;;;;;9.33;5.77;;;;;;;-1.06;83.42;98850.06;5048734;22;20718;-78
2023/02/28 06:41:22;;;;;;;7.83;5.43;;;;;;;-0.98;83.96;98848.22;5034507;28;20301;-78
2023/02/28 06:43:49;;;;;;;7.00;5.47;;;;;;;-0.94;83.66;98850.75;5034182;28;20235;-78
2023/02/28 06:46:15;;;;;;;9.67;6.00;;;;;;;-0.94;83.29;98855.06;5033959;28;20217;-78
2023/02/28 06:48:44;;;;;;;8.17;5.17;;;;;;;-0.92;82.81;98856.78;5034045;28;20232;-78
2023/02/28 06:51:13;;;;;;;7.43;5.43;;;;;;;-0.93;83.24;98862.00;5034055;28;20209;-78
2023/02/28 06:53:40;;;;;;;8.93;5.60;;;;;;;-0.91;83.46;98858.53;5033848;28;20261;-78
2023/02/28 06:56:08;;;;;;;9.30;5.70;;;;;;;-0.87;83.04;98862.78;5033955;28;20220;-78
2023/02/28 06:58:37;;;;;;;8.97;5.93;;;;;;;-0.88;82.71;98863.66;5033908;28;20235;-78
2023/02/28 07:01:04;;;;;;;8.83;5.27;;;;;;;-0.82;83.44;98865.31;5033876;28;20688;-78
2023/02/28 07:03:31;;;;;;;8.53;5.70;;;;;;;-0.85;83.16;98861.03;5033422;28;20245;-78
2023/02/28 07:05:58;;;;;;;8.23;5.83;;;;;;;-0.80;83.02;98866.16;5033674;28;20224;-78
2023/02/28 07:08:25;;;;;;;8.50;5.87;;;;;;;-0.81;82.68;98861.84;5033792;28;20571;-78
2023/02/28 07:10:53;;;;;;;7.77;5.73;;;;;;;-0.80;82.27;98861.81;5033416;28;20209;-78
2023/02/28 07:13:19;;;;;;;8.63;6.00;;;;;;;-0.79;81.23;98865.28;5033827;28;20216;-78
2023/02/28 07:15:55;;;;;;;8.03;5.77;;;;;;;-0.71;80.38;98858.25;5033532;28;20216;-78
2023/02/28 07:18:22;;;;;;;8.23;5.90;;;;;;;-0.69;81.35;98866.88;5033534;28;20232;-78
2023/02/28 07:20:48;;;;;;;8.40;5.97;;;;;;;-0.68;81.86;98869.44;5033385;28;20204;-78
2023/02/28 07:23:15;;;;;;;9.53;5.90;;;;;;;-0.70;80.59;98870.34;5033717;28;20236;-78
2023/02/28 07:25:41;;;;;;;9.13;5.67;;;;;;;-0.67;81.12;98871.19;5033502;28;20208;-78
2023/02/28 07:28:08;;;;;;;8.50;5.83;;;;;;;-0.61;80.53;98870.22;5033237;28;20243;-78
2023/02/28 07:30:34;;;;;;;8.70;5.87;;;;;;;-0.55;80.96;98859.75;5033437;28;20216;-78
2023/02/28 07:33:03;;;;;;;8.60;5.80;;;;;;;-0.53;79.60;98865.78;5033280;28;20667;-78
2023/02/28 07:35:29;;;;;;;9.00;5.47;;;;;;;-0.57;79.67;98874.50;5033190;28;20240;-77
2023/02/28 07:37:58;;;;;;;8.70;6.13;;;;;;;-0.55;80.58;98870.16;5032827;28;20239;-78
2023/02/28 07:40:24;;;;;;;7.63;6.10;;;;;;;-0.51;79.99;98861.44;5033088;28;20219;-78
2023/02/28 07:42:50;;;;;;;9.77;6.13;;;;;;;-0.52;79.26;98865.78;5033022;28;20221;-78
2023/02/28 07:45:18;;;;;;;7.80;5.77;;;;;;;-0.51;80.43;98875.28;5032798;28;20706;-78
2023/02/28 07:47:44;;;;;;;13.13;6.13;;;;;;;-0.47;81.30;98876.09;5032587;28;20236;-77
2023/02/28 07:50:15;;;;;;;8.87;6.20;;;;;;;-0.45;80.54;98874.34;5040953;28;20213;-81
2023/02/28 07:52:41;;;;;;;8.73;6.17;;;;;;;-0.41;80.47;98883.78;5040221;28;20221;-77
2023/02/28 07:55:10;;;;;;;10.97;7.17;;;;;;;-0.46;80.58;98868.28;5034375;28;20212;-76
2023/02/28 07:57:36;;;;;;;9.40;6.53;;;;;;;-0.44;79.81;98868.25;5035278;28;20233;-78
2023/02/28 08:00:04;;;;;;;9.23;6.30;;;;;;;-0.43;79.72;98877.78;5035378;28;20209;-77
2023/02/28 08:02:30;;;;;;;8.43;5.93;;;;;;;-0.42;79.54;98877.75;5034435;28;20689;-76
2023/02/28 08:04:57;;;;;;;8.90;6.30;;;;;;;-0.38;80.24;98879.41;5034619;28;20236;-77
2023/02/28 08:07:25;;;;;;;8.23;6.10;;;;;;;-0.31;78.52;98877.59;5032893;28;20236;-77
2023/02/28 08:09:51;;;;;;;9.37;6.57;;;;;;;-0.37;78.63;98875.09;5033071;28;20233;-76
2023/02/28 08:12:18;;;;;;;10.30;6.40;;;;;;;-0.36;78.74;98882.00;5033080;28;20216;-77
2023/02/28 08:14:44;;;;;;;10.07;6.30;;;;;;;-0.33;78.80;98880.19;5032199;28;20205;-77
2023/02/28 08:17:12;;;;;;;10.70;6.60;;;;;;;-0.29;79.46;98879.28;5032575;28;20232;-77
2023/02/28 08:19:38;;;;;;;8.67;6.10;;;;;;;-0.22;79.47;98881.75;5032925;28;20303;-76
2023/02/28 08:22:05;;;;;;;9.77;6.50;;;;;;;-0.16;79.28;98878.22;5032718;28;20213;-77
2023/02/28 08:24:33;;;;;;;10.77;7.70;;;;;;;-0.17;78.51;98873.03;5032523;28;20234;-77
2023/02/28 08:26:59;;;;;;;9.73;6.73;;;;;;;-0.12;77.95;98880.75;5031892;28;20228;-77
2023/02/28 08:29:26;;;;;;;8.20;6.33;;;;;;;-0.12;77.83;98885.94;5032423;28;20206;-77
2023/02/28 08:31:52;;;;;;;9.97;6.50;;;;;;;-0.10;78.37;98872.94;5032730;28;20214;-77
2023/02/28 08:34:19;;;;;;;9.00;6.63;;;;;;;-0.07;78.19;98884.13;5032403;28;20210;-77
2023/02/28 08:36:45;;;;;;;13.43;7.07;;;;;;;0.02;78.15;98896.97;5032580;28;20220;-78
2023/02/28 08:39:13;;;;;;;9.60;6.70;;;;;;;0.01;78.32;98889.22;5032295;28;20217;-78
2023/02/28 08:41:41;;;;;;;8.33;6.00;;;;;;;0.12;78.18;98880.34;5031334;28;20221;-77
2023/02/28 08:44:07;;;;;;;9.47;7.03;;;;;;;0.11;77.08;98870.84;5027307;28;20233;-77
2023/02/28 08:46:34;;;;;;;10.60;6.77;;;;;;;0.18;77.05;98874.19;5030218;28;20212;-77
2023/02/28 08:49:01;;;;;;;10.57;7.20;;;;;;;0.20;76.46;98873.28;5030735;28;20212;-77
2023/02/28 08:51:29;;;;;;;8.97;6.97;;;;;;;0.18;76.60;98875.06;5031119;28;20606;-77
2023/02/28 08:53:59;;;;;;;12.93;7.73;;;;;;;0.28;76.24;98876.63;5019750;28;20201;-77
2023/02/28 08:56:26;;;;;;;9.10;6.70;;;;;;;0.34;76.12;98881.72;5011137;28;20205;-76
2023/02/28 08:58:56;;;;;;;9.57;6.57;;;;;;;0.38;75.71;98885.13;5011606;28;20256;-76
2023/02/28 09:01:24;;;;;;;10.03;7.20;;;;;;;0.49;75.76;98889.25;5011238;28;20214;-76
2023/02/28 09:03:51;;;;;;;9.27;6.67;;;;;;;0.55;74.67;98876.13;5010907;28;20229;-76
2023/02/28 09:06:20;;;;;;;9.80;7.67;;;;;;;0.52;75.30;98889.22;5010768;28;20244;-76
2023/02/28 09:08:47;;;;;;;11.73;7.20;;;;;;;0.57;73.83;98876.97;5011279;28;20245;-76
2023/02/28 09:11:13;;;;;;;11.07;7.30;;;;;;;0.62;73.90;98880.34;5011145;28;20220;-76
2023/02/28 09:13:40;;;;;;;9.90;7.13;;;;;;;0.74;75.35;98884.47;5011180;28;20215;-76
2023/02/28 09:16:11;;;;;;;11.63;7.70;;;;;;;0.86;73.92;98873.84;5010813;28;20213;-76
2023/02/28 09:18:38;;;;;;;9.83;7.27;;;;;;;0.91;73.67;98874.59;5011006;28;20231;-76
2023/02/28 09:21:06;;;;;;;10.07;7.10;;;;;;;0.91;73.69;98878.06;5010555;28;20206;-76
2023/02/28 09:23:33;;;;;;;10.50;7.03;;;;;;;1.00;73.28;98869.22;5010827;28;20213;-76
2023/02/28 09:25:59;;;;;;;10.80;8.40;;;;;;;1.07;72.40;98871.69;5012640;28;20821;-77
2023/02/28 09:28:26;;;;;;;10.30;7.60;;;;;;;1.23;72.04;98875.66;5015579;28;20600;-77
2023/02/28 09:30:54;;;;;;;10.87;7.47;;;;;;;1.27;70.40;98869.50;5016105;28;20218;-79
2023/02/28 09:33:23;;;;;;;10.37;7.20;;;;;;;1.36;69.82;98878.88;5015680;28;20209;-76
2023/02/28 09:35:50;;;;;;;9.57;6.87;;;;;;;1.45;70.63;98876.06;5015630;28;20775;-78
2023/02/28 09:38:17;;;;;;;10.57;7.17;;;;;;;1.52;70.10;98873.31;5015399;28;20233;-79
2023/02/28 09:40:50;;;;;;;9.83;6.87;;;;;;;1.64;69.01;98867.84;5015900;28;20214;-80
2023/02/28 09:43:18;;;;;;;10.83;7.73;;;;;;;1.70;67.62;98862.47;5016201;28;20213;-80
2023/02/28 09:45:50;;;;;;;9.17;6.97;;;;;;;1.77;66.26;98851.03;5015917;28;20240;-78
2023/02/28 09:48:22;;;;;;;10.80;7.47;;;;;;;1.73;65.31;98854.56;5015299;28;20596;-79
2023/02/28 09:50:53;;;;;;;11.67;7.33;;;;;;;1.82;66.00;98862.19;5015621;28;20212;-80
2023/02/28 09:53:27;;;;;;;9.97;7.37;;;;;;;1.85;66.10;98869.94;5016056;28;20281;-81
2023/02/28 09:55:59;;;;;;;8.33;6.03;;;;;;;1.89;64.98;98857.72;5015353;28;20202;-80
2023/02/28 09:58:35;;;;;;;10.67;7.20;;;;;;;1.96;65.06;98865.34;5015243;28;20239;-80
2023/02/28 10:01:07;;;;;;;9.17;7.40;;;;;;;2.12;64.85;98850.19;5015322;28;20689;-79
2023/02/28 10:03:39;;;;;;;9.57;7.13;;;;;;;2.16;64.30;98859.66;5015500;28;20212;-79
2023/02/28 10:06:15;;;;;;;10.27;7.73;;;;;;;2.16;64.28;98855.31;5015023;28;20242;-79
2023/02/28 10:08:53;;;;;;;10.37;7.20;;;;;;;2.14;63.77;98854.47;5021518;28;20228;-80
2023/02/28 10:11:22;;;;;;;9.07;7.20;;;;;;;2.29;64.20;98864.53;5033569;28;20215;-80
2023/02/28 10:14:02;;;;;;;11.38;8.73;;;;;;;2.41;63.70;98859.00;5030461;28;20445;-80
2023/02/28 10:16:34;;;;;;;9.63;7.50;;;;;;;2.41;62.15;98842.50;5031697;28;20213;-81
2023/02/28 10:19:06;;;;;;;11.50;7.07;;;;;;;2.41;63.13;98852.94;5034189;28;20237;-80
2023/02/28 10:21:37;;;;;;;10.23;7.57;;;;;;;2.38;62.54;98848.63;5045254;28;20215;-80
2023/02/28 10:24:18;;;;;;;10.47;7.80;;;;;;;2.32;62.46;98854.00;5031746;28;20225;-81
2023/02/28 10:26:46;;;;;;;10.20;7.83;;;;;;;2.37;62.63;98862.59;5031893;28;20208;-79
2023/02/28 10:29:12;;;;;;;10.63;7.70;;;;;;;2.47;63.34;98864.06;5033560;28;20590;-80
2023/02/28 10:31:40;;;;;;;10.33;8.03;;;;;;;2.57;62.93;98875.13;5032703;28;20220;-79
2023/02/28 10:34:07;;;;;;;10.43;8.03;;;;;;;2.67;62.36;98874.84;5050383;28;20215;-76
2023/02/28 10:36:35;;;;;;;10.57;7.30;;;;;;;2.79;62.92;98879.75;5052555;28;20217;-78
2023/02/28 10:39:01;;;;;;;11.20;8.10;;;;;;;2.92;62.61;98878.50;5053054;28;20241;-80
2023/02/28 10:41:34;;;;;;;12.17;8.57;;;;;;;2.94;61.03;98860.19;5053560;28;20217;-80
2023/02/28 10:44:15;;;;;;;10.90;7.70;;;;;;;2.99;60.97;98853.09;5052772;28;20207;-80
2023/02/28 10:46:43;;;;;;;10.27;8.00;;;;;;;3.14;60.76;98856.13;5052609;28;20600;-81
2023/02/28 10:49:18;;;;;;;11.00;8.13;;;;;;;3.29;61.73;98862.66;5052655;28;20212;-80
2023/02/28 10:51:54;;;;;;;12.33;7.97;;;;;;;3.35;60.33;98841.56;5052513;28;20276;-80
2023/02/28 10:54:25;;;;;;;12.43;8.13;;;;;;;3.37;60.44;98851.09;5053157;28;20672;-80
2023/02/28 10:57:19;;;;;;;9.70;7.47;;;;;;;3.46;60.38;98844.72;5052998;28;20200;-80
2023/02/28 10:59:46;;;;;;;9.87;7.67;;;;;;;3.58;61.16;98857.44;5052999;28;20712;-81
2023/02/28 11:02:34;;;;;;;10.27;7.90;;;;;;;3.87;60.43;98849.56;5053219;28;20568;-81
2023/02/28 11:05:01;;;;;;;10.47;7.90;;;;;;;4.05;60.41;98847.25;5052312;28;20322;-81
2023/02/28 11:07:29;;;;;;;9.97;7.87;;;;;;;4.15;59.05;98835.56;5052142;28;20228;-81
2023/02/28 11:09:57;;;;;;;11.50;7.53;;;;;;;4.25;59.72;98843.94;5040052;28;20309;-80
2023/02/28 11:12:28;;;;;;;10.73;7.73;;;;;;;4.30;59.32;98839.44;5033017;28;20219;-81
2023/02/28 11:14:58;;;;;;;10.43;7.47;;;;;;;4.17;58.39;98825.03;5032151;28;20299;-85
2023/02/28 11:17:28;;;;;;;11.40;8.10;;;;;;;3.93;57.72;98812.75;5032006;28;20236;-79
2023/02/28 11:19:57;;;;;;;11.18;8.65;;;;;;;3.83;58.80;98820.03;5012711;28;20443;-79
2023/02/28 11:22:28;;;;;;;11.33;8.07;;;;;;;3.88;58.87;98826.00;5013167;28;20234;-77
2023/02/28 11:24:58;;;;;;;9.13;7.53;;;;;;;3.91;59.08;98823.25;5012949;28;20326;-78
2023/02/28 11:27:47;;;;;;;10.57;7.83;;;;;;;3.98;58.22;98814.31;5012927;28;20681;-84
2023/02/28 11:30:30;;;;;;;12.03;8.50;;;;;;;4.11;58.30;98820.00;5013331;28;20244;-78
2023/02/28 11:32:58;;;;;;;10.07;7.70;;;;;;;4.12;57.64;98811.25;5016792;28;20299;-80
2023/02/28 11:35:29;;;;;;;9.70;7.73;;;;;;;4.17;58.01;98810.19;5016794;28;20209;-82
2023/02/28 11:37:56;;;;;;;11.40;8.17;;;;;;;4.29;57.99;98801.94;5017143;28;20247;-82
2023/02/28 11:40:31;;;;;;;10.87;8.27;;;;;;;4.31;57.16;98797.53;5016786;28;20212;-80
2023/02/28 11:43:08;;;;;;;9.23;7.87;;;;;;;4.38;56.81;98799.03;5017000;28;20243;-80
2023/02/28 11:45:45;;;;;;;11.23;8.40;;;;;;;4.46;57.87;98809.22;5016434;28;20234;-80